Terminal Aerodrome Forecast
Issued by NWS

Home | Current Version | Previous Version | Text Only | Print | Product List | Glossary On
Versions: 1 2 3 4 5 6 7 8 9 10 11 12 13 14 15 16 17
495
FTUS45 KTFX 030522
TAFCTB
TAF
KCTB 030522Z 0306/0406 25027G35KT P6SM BKN090
      TEMPO 0306/0309 25030G40KT
     FM031200 27030G42KT P6SM BKN090 WS020/27045KT
     FM031700 27035G45KT P6SM SCT090
     FM040000 26025G35KT P6SM SCT090 BKN150=

USA.gov is the U.S. government's official web portal to all federal, state and local government web resources and services.